createdAt,value
2018-07-07T00:01:54.144Z,16.03
2018-07-07T00:04:23.516Z,15.99
2018-07-07T00:06:52.906Z,16.08
2018-07-07T00:09:22.910Z,16.08
2018-07-07T00:11:52.153Z,15.98
2018-07-07T00:14:21.594Z,15.97
2018-07-07T00:16:50.858Z,15.97
2018-07-07T00:19:20.184Z,15.99
2018-07-07T00:21:49.863Z,16.02
2018-07-07T00:24:19.255Z,16.03
2018-07-07T00:26:48.581Z,16.07
2018-07-07T00:29:18.002Z,16.05
2018-07-07T00:31:47.598Z,16.02
2018-07-07T00:34:16.960Z,15.92
2018-07-07T00:36:47.152Z,15.94
2018-07-07T00:39:16.967Z,15.93
2018-07-07T00:41:46.239Z,15.93
2018-07-07T00:44:15.525Z,15.90
2018-07-07T00:46:44.811Z,15.96
2018-07-07T00:49:14.138Z,15.89
2018-07-07T00:51:43.419Z,15.88
2018-07-07T00:54:12.803Z,15.82
2018-07-07T00:56:42.271Z,15.87
2018-07-07T00:59:11.305Z,15.89
2018-07-07T01:01:40.506Z,15.87
2018-07-07T01:04:09.539Z,15.81
2018-07-07T01:06:38.624Z,15.80
2018-07-07T01:09:07.711Z,15.83
2018-07-07T01:11:37.003Z,15.87
2018-07-07T01:14:06.483Z,15.85
2018-07-07T01:16:35.939Z,15.85
2018-07-07T01:19:05.331Z,15.86
2018-07-07T01:21:35.618Z,15.87
2018-07-07T01:24:04.741Z,15.85
2018-07-07T01:26:33.786Z,15.88
2018-07-07T01:29:02.833Z,15.86
2018-07-07T01:31:31.791Z,15.84
2018-07-07T01:34:00.888Z,15.74
2018-07-07T01:36:30.015Z,15.75
2018-07-07T01:38:59.117Z,15.76
2018-07-07T01:41:28.781Z,15.82
2018-07-07T01:43:57.782Z,15.78
2018-07-07T01:46:26.775Z,15.77
2018-07-07T01:48:55.926Z,15.77
2018-07-07T01:51:24.899Z,15.72
2018-07-07T01:53:53.954Z,15.58
2018-07-07T01:56:22.931Z,15.58
2018-07-07T01:58:52.972Z,15.59
2018-07-07T02:01:21.963Z,15.50
2018-07-07T02:03:51.029Z,15.50
2018-07-07T02:06:20.005Z,15.49
2018-07-07T02:08:49.113Z,15.44
2018-07-07T02:11:18.453Z,15.37
2018-07-07T02:13:47.716Z,15.43
2018-07-07T02:16:16.753Z,15.47
2018-07-07T02:18:45.762Z,15.41
2018-07-07T02:21:14.829Z,15.42
2018-07-07T02:23:43.990Z,15.33
2018-07-07T02:26:12.987Z,15.40
2018-07-07T02:28:42.283Z,15.39
2018-07-07T02:31:11.336Z,15.43
2018-07-07T02:33:40.931Z,15.43
2018-07-07T02:36:09.933Z,15.35
2018-07-07T02:38:38.996Z,15.31
2018-07-07T02:41:08.066Z,15.31
2018-07-07T02:43:37.123Z,15.20
2018-07-07T02:46:06.093Z,15.19
2018-07-07T02:48:35.099Z,15.28
2018-07-07T02:51:04.193Z,15.14
2018-07-07T02:53:33.291Z,15.17
2018-07-07T02:56:02.283Z,15.25
2018-07-07T02:58:31.325Z,15.27
2018-07-07T03:01:00.486Z,15.20
2018-07-07T03:03:29.457Z,15.30
2018-07-07T03:05:58.631Z,15.22
2018-07-07T03:08:27.662Z,15.25
2018-07-07T03:10:56.729Z,15.26
2018-07-07T03:13:25.861Z,15.27
2018-07-07T03:15:54.906Z,15.53
2018-07-07T03:18:24.007Z,15.27
2018-07-07T03:20:53.056Z,15.21
2018-07-07T03:23:22.033Z,15.18
2018-07-07T03:25:51.047Z,15.24
2018-07-07T03:28:20.154Z,15.29
2018-07-07T03:30:49.201Z,15.40
2018-07-07T03:33:18.250Z,15.42
2018-07-07T03:35:47.330Z,15.33
2018-07-07T03:38:16.293Z,15.21
2018-07-07T03:40:45.285Z,15.24
2018-07-07T03:43:14.639Z,15.26
2018-07-07T03:45:43.632Z,15.19
2018-07-07T03:48:12.788Z,15.20
2018-07-07T03:50:42.065Z,15.22
2018-07-07T03:53:11.131Z,15.22
2018-07-07T03:55:40.112Z,15.21
2018-07-07T03:58:09.244Z,15.24
2018-07-07T04:00:38.236Z,15.32
2018-07-07T04:03:07.337Z,15.32
2018-07-07T04:05:36.425Z,15.23
2018-07-07T04:08:05.535Z,15.32
2018-07-07T04:10:34.663Z,15.29
2018-07-07T04:13:03.852Z,15.31
2018-07-07T04:15:33.051Z,15.33
2018-07-07T04:18:02.249Z,15.37
2018-07-07T04:20:31.408Z,15.29
2018-07-07T04:23:00.461Z,15.30
2018-07-07T04:25:29.763Z,15.33
2018-07-07T04:27:58.930Z,15.37
2018-07-07T04:30:28.114Z,15.34
2018-07-07T04:32:57.126Z,15.49
2018-07-07T04:35:26.170Z,15.42
2018-07-07T04:37:55.187Z,15.42
2018-07-07T04:40:24.225Z,15.50
2018-07-07T04:42:53.279Z,15.49
2018-07-07T04:45:22.290Z,15.55
2018-07-07T04:47:51.331Z,15.58
2018-07-07T04:50:20.431Z,15.67
2018-07-07T04:52:49.892Z,15.69
2018-07-07T04:55:18.865Z,15.89
2018-07-07T04:57:47.969Z,15.78
2018-07-07T05:00:16.981Z,15.76
2018-07-07T05:02:46.037Z,15.83
2018-07-07T05:05:15.760Z,15.87
2018-07-07T05:07:45.088Z,15.89
2018-07-07T05:10:15.569Z,15.84
2018-07-07T05:12:44.757Z,15.80
2018-07-07T05:15:13.930Z,15.90
2018-07-07T05:17:43.013Z,15.98
2018-07-07T05:20:12.072Z,16.02
2018-07-07T05:22:41.031Z,16.29
2018-07-07T05:25:10.069Z,16.48
2018-07-07T05:27:39.119Z,16.81
2018-07-07T05:30:08.202Z,16.73
2018-07-07T05:32:37.482Z,16.61
2018-07-07T05:35:06.999Z,16.52
2018-07-07T05:37:36.359Z,16.45
2018-07-07T05:40:05.715Z,16.34
2018-07-07T05:42:35.307Z,16.32
2018-07-07T05:45:04.886Z,16.19
2018-07-07T05:47:34.527Z,16.19
2018-07-07T05:50:03.967Z,16.21
2018-07-07T05:52:33.356Z,16.12
2018-07-07T05:55:04.298Z,16.15
2018-07-07T05:57:33.759Z,16.14
2018-07-07T06:00:03.725Z,16.12
2018-07-07T06:02:34.008Z,16.12
2018-07-07T06:05:03.687Z,16.18
2018-07-07T06:07:38.715Z,16.26
2018-07-07T06:10:11.959Z,16.35
2018-07-07T06:12:43.618Z,16.38
2018-07-07T06:15:15.023Z,16.53
2018-07-07T06:17:46.221Z,16.55
2018-07-07T06:20:35.666Z,16.72
2018-07-07T06:23:09.386Z,16.73
2018-07-07T06:25:48.573Z,16.73
2018-07-07T06:28:20.297Z,16.75
2018-07-07T06:30:52.470Z,16.77
2018-07-07T06:33:25.809Z,16.80
2018-07-07T06:35:58.255Z,16.91
2018-07-07T06:38:39.887Z,17.23
2018-07-07T06:41:21.416Z,17.46
2018-07-07T06:43:53.658Z,17.58
2018-07-07T06:46:32.084Z,17.46
2018-07-07T06:49:01.469Z,17.41
2018-07-07T06:51:30.911Z,17.41
2018-07-07T06:54:00.278Z,17.35
2018-07-07T06:56:30.515Z,17.47
2018-07-07T06:59:00.057Z,17.13
2018-07-07T07:01:29.356Z,17.04
2018-07-07T07:03:58.703Z,17.07
2018-07-07T07:06:28.078Z,17.20
2018-07-07T07:08:57.692Z,17.24
2018-07-07T07:11:26.985Z,17.30
2018-07-07T07:13:56.431Z,17.09
2018-07-07T07:16:26.261Z,17.12
2018-07-07T07:18:55.538Z,17.24
2018-07-07T07:21:25.011Z,17.24
2018-07-07T07:23:54.575Z,17.22
2018-07-07T07:26:25.084Z,17.32
2018-07-07T07:28:54.541Z,17.39
2018-07-07T07:31:23.935Z,17.36
2018-07-07T07:33:53.229Z,17.37
2018-07-07T07:36:44.090Z,17.47
2018-07-07T07:39:13.851Z,17.43
2018-07-07T07:41:44.697Z,17.63
2018-07-07T07:44:14.251Z,17.47
2018-07-07T07:46:44.354Z,17.32
2018-07-07T07:49:13.879Z,17.35
2018-07-07T07:51:43.272Z,17.31
2018-07-07T07:54:13.500Z,17.32
2018-07-07T07:56:42.704Z,17.38
2018-07-07T07:59:14.229Z,17.48
2018-07-07T08:01:43.703Z,17.67
2018-07-07T08:04:12.996Z,17.77
2018-07-07T08:06:42.740Z,17.76
2018-07-07T08:09:12.794Z,17.81
2018-07-07T08:11:43.254Z,17.79
2018-07-07T08:14:12.906Z,17.85
2018-07-07T08:16:42.448Z,18.03
2018-07-07T08:19:12.638Z,18.31
2018-07-07T08:21:42.121Z,18.55
2018-07-07T08:24:11.591Z,18.82
2018-07-07T08:26:41.182Z,18.86
2018-07-07T08:29:11.731Z,19.30
2018-07-07T08:31:41.399Z,19.76
2018-07-07T08:34:11.108Z,20.16
2018-07-07T08:36:40.735Z,19.91
2018-07-07T08:39:10.626Z,20.03
2018-07-07T08:41:41.729Z,20.23
2018-07-07T08:44:11.542Z,20.06
2018-07-07T08:46:41.078Z,19.97
2018-07-07T08:49:10.461Z,19.80
2018-07-07T08:51:39.751Z,19.70
2018-07-07T08:54:09.324Z,19.77
2018-07-07T08:56:38.654Z,19.99
2018-07-07T08:59:07.978Z,20.29
2018-07-07T09:01:37.715Z,20.81
2018-07-07T09:04:07.295Z,20.63
2018-07-07T09:06:36.738Z,20.44
2018-07-07T09:09:06.666Z,20.14
2018-07-07T09:11:36.125Z,20.40
2018-07-07T09:14:05.475Z,20.09
2018-07-07T09:16:34.738Z,19.81
2018-07-07T09:19:04.155Z,19.75
2018-07-07T09:21:33.621Z,19.67
2018-07-07T09:24:02.855Z,19.71
2018-07-07T09:26:32.286Z,19.52
2018-07-07T09:29:01.863Z,19.63
2018-07-07T09:31:31.253Z,19.54
2018-07-07T09:34:00.783Z,19.70
2018-07-07T09:36:31.148Z,19.60
2018-07-07T09:39:00.877Z,19.61
2018-07-07T09:41:30.236Z,20.09
2018-07-07T09:43:59.719Z,20.44
2018-07-07T09:46:29.539Z,19.98
2018-07-07T09:48:58.815Z,20.09
2018-07-07T09:51:28.299Z,20.00
2018-07-07T09:53:58.038Z,19.90
2018-07-07T09:56:27.578Z,20.13
2018-07-07T09:58:56.939Z,20.05
2018-07-07T10:01:26.719Z,20.43
2018-07-07T10:03:56.092Z,20.84
2018-07-07T10:06:25.481Z,20.66
2018-07-07T10:08:54.831Z,20.35
2018-07-07T10:11:24.080Z,19.93
2018-07-07T10:13:53.804Z,20.09
2018-07-07T10:16:23.212Z,19.85
2018-07-07T10:18:52.535Z,19.63
2018-07-07T10:21:22.405Z,19.72
2018-07-07T10:23:51.759Z,19.63
2018-07-07T10:26:21.136Z,19.82
2018-07-07T10:28:51.850Z,20.16
2018-07-07T10:31:21.383Z,20.12
2018-07-07T10:33:50.855Z,19.98
2018-07-07T10:36:20.354Z,20.49
2018-07-07T10:38:50.161Z,20.58
2018-07-07T10:41:19.889Z,21.08
2018-07-07T10:43:49.483Z,20.76
2018-07-07T10:46:19.388Z,20.58
2018-07-07T10:48:49.526Z,20.54
2018-07-07T10:51:18.873Z,20.76
2018-07-07T10:53:48.307Z,21.40
2018-07-07T10:56:17.839Z,21.53
2018-07-07T10:58:47.351Z,21.19
2018-07-07T11:01:16.931Z,20.82
2018-07-07T11:03:46.255Z,20.48
2018-07-07T11:06:15.624Z,20.41
2018-07-07T11:08:45.051Z,20.37
2018-07-07T11:11:14.399Z,20.38
2018-07-07T11:13:43.709Z,20.23
2018-07-07T11:16:13.356Z,20.22
2018-07-07T11:18:43.135Z,20.32
2018-07-07T11:21:12.600Z,20.46
2018-07-07T11:23:41.932Z,20.32
2018-07-07T11:26:11.196Z,20.43
2018-07-07T11:28:40.709Z,20.85
2018-07-07T11:31:10.046Z,21.04
2018-07-07T11:33:39.574Z,20.91
2018-07-07T11:36:08.988Z,21.28
2018-07-07T11:38:38.461Z,21.39
2018-07-07T11:41:07.905Z,21.47
2018-07-07T11:43:37.311Z,20.95
2018-07-07T11:46:06.769Z,20.79
2018-07-07T11:48:36.427Z,20.79
2018-07-07T11:51:05.939Z,21.21
2018-07-07T11:53:35.467Z,21.14
2018-07-07T11:56:04.957Z,21.07
2018-07-07T11:58:34.405Z,20.98
2018-07-07T12:01:03.818Z,20.86
2018-07-07T12:03:33.243Z,20.71
2018-07-07T12:06:02.667Z,20.61
2018-07-07T12:08:32.231Z,20.50
2018-07-07T12:11:01.748Z,20.82
2018-07-07T12:13:31.385Z,21.31
2018-07-07T12:16:01.011Z,21.93
2018-07-07T12:18:30.420Z,21.97
2018-07-07T12:20:59.952Z,21.84
2018-07-07T12:23:29.476Z,22.01
2018-07-07T12:25:58.888Z,21.44
2018-07-07T12:28:28.075Z,21.52
2018-07-07T12:30:57.504Z,21.22
2018-07-07T12:33:27.152Z,21.36
2018-07-07T12:35:56.493Z,21.30
2018-07-07T12:38:25.763Z,21.29
2018-07-07T12:40:55.118Z,21.22
2018-07-07T12:43:24.436Z,21.28
2018-07-07T12:45:53.923Z,21.45
2018-07-07T12:48:23.431Z,21.69
2018-07-07T12:50:52.879Z,21.60
2018-07-07T12:53:22.271Z,21.71
2018-07-07T12:55:51.723Z,21.66
2018-07-07T12:58:21.046Z,21.62
2018-07-07T13:00:50.418Z,21.47
2018-07-07T13:03:20.350Z,21.49
2018-07-07T13:05:49.597Z,21.54
2018-07-07T13:08:18.831Z,21.69
2018-07-07T13:10:48.582Z,21.84
2018-07-07T13:13:18.356Z,21.92
2018-07-07T13:15:47.736Z,21.87
2018-07-07T13:18:17.023Z,21.64
2018-07-07T13:20:46.391Z,21.56
2018-07-07T13:23:15.617Z,21.56
2018-07-07T13:25:45.065Z,21.55
2018-07-07T13:28:14.612Z,21.85
2018-07-07T13:30:44.009Z,21.96
2018-07-07T13:33:13.712Z,22.04
2018-07-07T13:35:43.484Z,21.93
2018-07-07T13:38:13.399Z,21.60
2018-07-07T13:40:42.811Z,21.59
2018-07-07T13:43:12.691Z,21.68
2018-07-07T13:45:42.062Z,21.75
2018-07-07T13:48:11.493Z,21.42
2018-07-07T13:50:40.758Z,21.36
2018-07-07T13:53:10.079Z,21.37
2018-07-07T13:55:39.426Z,21.72
2018-07-07T13:58:08.722Z,22.26
2018-07-07T14:00:38.024Z,22.39
2018-07-07T14:03:07.362Z,22.58
2018-07-07T14:05:36.773Z,23.00
2018-07-07T14:08:06.100Z,23.20
2018-07-07T14:10:35.430Z,23.34
2018-07-07T14:13:04.666Z,23.28
2018-07-07T14:15:34.255Z,22.49
2018-07-07T14:18:03.724Z,22.34
2018-07-07T14:20:33.045Z,22.31
2018-07-07T14:23:02.357Z,22.07
2018-07-07T14:25:31.666Z,22.49
2018-07-07T14:28:00.911Z,22.43
2018-07-07T14:30:30.219Z,21.96
2018-07-07T14:32:59.673Z,22.36
2018-07-07T14:35:29.089Z,22.55
2018-07-07T14:37:58.651Z,22.67
2018-07-07T14:40:28.044Z,22.80
2018-07-07T14:42:58.071Z,22.87
2018-07-07T14:45:30.046Z,22.91
2018-07-07T14:48:01.705Z,22.95
2018-07-07T14:50:31.130Z,22.77
2018-07-07T14:53:00.420Z,22.82
2018-07-07T14:55:30.109Z,22.84
2018-07-07T14:58:00.257Z,22.81
2018-07-07T15:00:30.010Z,22.35
2018-07-07T15:02:59.980Z,21.99
2018-07-07T15:05:29.269Z,22.36
2018-07-07T15:07:58.667Z,22.40
2018-07-07T15:10:28.121Z,22.73
2018-07-07T15:12:57.734Z,22.69
2018-07-07T15:15:27.465Z,22.95
2018-07-07T15:17:56.864Z,22.83
2018-07-07T15:20:26.290Z,22.71
2018-07-07T15:22:55.641Z,22.70
2018-07-07T15:25:24.926Z,22.78
2018-07-07T15:27:54.229Z,23.07
2018-07-07T15:30:23.594Z,22.95
2018-07-07T15:32:53.874Z,22.70
2018-07-07T15:35:23.327Z,22.42
2018-07-07T15:37:52.762Z,22.37
2018-07-07T15:40:22.006Z,22.30
2018-07-07T15:42:51.372Z,22.06
2018-07-07T15:45:20.780Z,21.75
2018-07-07T15:47:50.245Z,21.57
2018-07-07T15:50:19.579Z,21.54
2018-07-07T15:52:49.108Z,21.36
2018-07-07T15:55:19.576Z,21.03
2018-07-07T15:57:49.787Z,21.03
2018-07-07T16:00:19.170Z,21.56
2018-07-07T16:02:48.785Z,21.57
2018-07-07T16:05:18.232Z,21.03
2018-07-07T16:07:47.645Z,20.79
2018-07-07T16:10:17.543Z,20.71
2018-07-07T16:12:46.977Z,20.85
2018-07-07T16:15:16.320Z,20.77
2018-07-07T16:17:48.740Z,20.86
2018-07-07T16:20:18.119Z,20.70
2018-07-07T16:22:47.543Z,20.45
2018-07-07T16:25:16.804Z,20.12
2018-07-07T16:27:46.124Z,20.36
2018-07-07T16:30:15.629Z,20.42
2018-07-07T16:32:45.024Z,20.23
2018-07-07T16:35:14.443Z,19.91
2018-07-07T16:37:43.665Z,20.12
2018-07-07T16:40:12.994Z,20.12
2018-07-07T16:42:42.854Z,19.99
2018-07-07T16:45:12.281Z,19.73
2018-07-07T16:47:42.502Z,19.68
2018-07-07T16:50:13.053Z,19.51
2018-07-07T16:52:43.126Z,19.22
2018-07-07T16:55:12.728Z,19.23
2018-07-07T16:57:42.399Z,19.40
2018-07-07T17:00:11.829Z,19.11
2018-07-07T17:02:41.529Z,19.01
2018-07-07T17:05:11.334Z,19.17
2018-07-07T17:07:40.847Z,19.06
2018-07-07T17:10:10.259Z,18.88
2018-07-07T17:12:39.686Z,18.70
2018-07-07T17:15:08.912Z,18.76
2018-07-07T17:17:38.349Z,18.62
2018-07-07T17:20:07.953Z,18.58
2018-07-07T17:22:37.524Z,18.39
2018-07-07T17:25:07.069Z,18.18
2018-07-07T17:27:36.521Z,18.10
2018-07-07T17:30:05.887Z,18.15
2018-07-07T17:32:35.347Z,18.19
2018-07-07T17:35:04.680Z,18.05
2018-07-07T17:37:34.154Z,17.96
2018-07-07T17:40:03.605Z,18.06
2018-07-07T17:42:33.033Z,17.96
2018-07-07T17:45:03.004Z,17.92
2018-07-07T17:47:32.456Z,17.83
2018-07-07T17:50:03.311Z,17.83
2018-07-07T17:52:33.953Z,17.88
2018-07-07T17:55:05.004Z,17.78
2018-07-07T17:57:34.642Z,17.74
2018-07-07T18:00:04.566Z,17.73
2018-07-07T18:02:33.991Z,17.79
2018-07-07T18:05:03.393Z,17.70
2018-07-07T18:07:32.733Z,17.67
2018-07-07T18:10:02.075Z,17.61
2018-07-07T18:12:31.520Z,17.59
2018-07-07T18:15:00.899Z,17.62
2018-07-07T18:17:31.291Z,17.62
2018-07-07T18:20:00.699Z,17.44
2018-07-07T18:22:30.202Z,17.34
2018-07-07T18:24:59.688Z,17.39
2018-07-07T18:27:29.417Z,17.35
2018-07-07T18:29:59.835Z,17.43
2018-07-07T18:32:29.354Z,17.29
2018-07-07T18:34:59.704Z,17.18
2018-07-07T18:37:29.153Z,17.00
2018-07-07T18:39:58.482Z,17.12
2018-07-07T18:42:28.746Z,17.06
2018-07-07T18:44:58.150Z,16.94
2018-07-07T18:47:27.612Z,16.86
2018-07-07T18:49:56.982Z,16.73
2018-07-07T18:52:27.736Z,16.74
2018-07-07T18:54:57.113Z,16.72
2018-07-07T18:57:26.582Z,16.69
2018-07-07T18:59:56.651Z,16.73
2018-07-07T19:02:26.403Z,16.47
2018-07-07T19:04:55.593Z,16.35
2018-07-07T19:07:25.068Z,16.29
2018-07-07T19:09:54.588Z,16.13
2018-07-07T19:12:24.013Z,16.08
2018-07-07T19:14:57.043Z,16.08
2018-07-07T19:17:26.330Z,16.08
2018-07-07T19:19:56.216Z,16.10
2018-07-07T19:22:30.715Z,16.03
2018-07-07T19:25:05.032Z,15.99
2018-07-07T19:27:34.686Z,15.87
2018-07-07T19:30:04.316Z,15.87
2018-07-07T19:32:39.388Z,15.79
2018-07-07T19:35:14.392Z,15.77
2018-07-07T19:37:44.091Z,15.79
2018-07-07T19:40:13.982Z,15.74
2018-07-07T19:42:43.776Z,15.63
2018-07-07T19:45:14.768Z,15.63
2018-07-07T19:47:44.684Z,15.57
2018-07-07T19:50:14.143Z,15.54
2018-07-07T19:52:44.770Z,15.56
2018-07-07T19:55:14.527Z,15.54
2018-07-07T19:57:44.231Z,15.45
2018-07-07T20:00:14.817Z,15.39
2018-07-07T20:02:44.527Z,15.38
2018-07-07T20:05:14.912Z,15.33
2018-07-07T20:07:45.678Z,15.32
2018-07-07T20:10:15.781Z,15.24
2018-07-07T20:12:45.225Z,15.38
2018-07-07T20:15:15.190Z,15.29
2018-07-07T20:17:55.541Z,15.14
2018-07-07T20:20:36.693Z,15.24
2018-07-07T20:23:07.618Z,15.26
2018-07-07T20:25:37.525Z,15.23
2018-07-07T20:28:12.958Z,15.25
2018-07-07T20:30:42.720Z,15.32
2018-07-07T20:33:12.422Z,15.30
2018-07-07T20:35:43.226Z,15.25
2018-07-07T20:38:14.490Z,15.24
2018-07-07T20:40:46.913Z,15.12
2018-07-07T20:43:16.943Z,15.07
2018-07-07T20:45:47.013Z,15.11
2018-07-07T20:48:17.625Z,15.11
2018-07-07T20:50:47.067Z,15.07
2018-07-07T20:53:17.481Z,15.10
2018-07-07T20:55:46.811Z,15.00
2018-07-07T20:58:16.075Z,15.05
2018-07-07T21:00:45.374Z,15.06
2018-07-07T21:03:14.773Z,14.97
2018-07-07T21:05:44.190Z,14.87
2018-07-07T21:08:13.802Z,14.78
2018-07-07T21:10:43.232Z,14.69
2018-07-07T21:13:12.755Z,14.68
2018-07-07T21:15:42.234Z,14.74
2018-07-07T21:18:11.693Z,14.80
2018-07-07T21:20:41.984Z,14.70
2018-07-07T21:23:11.683Z,14.62
2018-07-07T21:25:41.074Z,14.66
2018-07-07T21:28:10.380Z,14.70
2018-07-07T21:30:39.817Z,14.71
2018-07-07T21:33:09.120Z,14.77
2018-07-07T21:35:38.526Z,14.68
2018-07-07T21:38:07.977Z,14.59
2018-07-07T21:40:37.431Z,14.69
2018-07-07T21:43:06.781Z,14.58
2018-07-07T21:45:36.112Z,14.61
2018-07-07T21:48:05.983Z,14.59
2018-07-07T21:50:35.343Z,14.52
2018-07-07T21:53:04.919Z,14.52
2018-07-07T21:55:34.630Z,14.29
2018-07-07T21:58:09.510Z,14.38
2018-07-07T22:03:01.244Z,14.32
2018-07-07T22:05:33.191Z,14.38
2018-07-07T22:08:07.844Z,14.27
2018-07-07T22:10:37.748Z,14.32
2018-07-07T22:13:07.121Z,14.25
2018-07-07T22:15:36.333Z,14.00
2018-07-07T22:18:05.929Z,13.79
2018-07-07T22:20:36.428Z,13.98
2018-07-07T22:23:05.980Z,14.09
2018-07-07T22:25:35.306Z,14.09
2018-07-07T22:28:04.719Z,14.19
2018-07-07T22:30:34.402Z,14.16
2018-07-07T22:33:09.124Z,14.24
2018-07-07T22:35:43.446Z,14.12
2018-07-07T22:38:17.859Z,14.06
2018-07-07T22:40:47.368Z,14.04
2018-07-07T22:43:16.823Z,14.10
2018-07-07T22:45:46.157Z,13.97
2018-07-07T22:48:15.547Z,13.74
2018-07-07T22:50:45.001Z,13.88
2018-07-07T22:53:14.384Z,13.94
2018-07-07T22:55:44.540Z,13.93
2018-07-07T22:58:13.771Z,13.96
2018-07-07T23:00:43.115Z,13.81
2018-07-07T23:03:13.297Z,13.75
2018-07-07T23:05:42.719Z,13.78
2018-07-07T23:08:12.415Z,13.77
2018-07-07T23:10:41.801Z,13.72
2018-07-07T23:13:11.080Z,13.72
2018-07-07T23:15:40.424Z,13.57
2018-07-07T23:18:09.796Z,13.56
2018-07-07T23:20:39.031Z,13.55
2018-07-07T23:23:08.365Z,13.48
2018-07-07T23:25:39.324Z,13.57
2018-07-07T23:28:09.746Z,13.34
2018-07-07T23:30:39.218Z,13.40
2018-07-07T23:33:08.723Z,13.44
2018-07-07T23:35:38.248Z,13.35
2018-07-07T23:38:07.644Z,13.28
2018-07-07T23:40:37.168Z,13.33
2018-07-07T23:43:06.664Z,13.41
2018-07-07T23:45:35.946Z,13.22
2018-07-07T23:48:05.228Z,13.16
2018-07-07T23:50:34.508Z,13.22
2018-07-07T23:53:03.819Z,13.28
2018-07-07T23:55:33.121Z,13.23
2018-07-07T23:58:02.546Z,13.11
